Terminal Aerodrome Forecast
Issued by NWS Charleston, WV

Current Version | Previous Version | Graphics & Text | Print | Product List | Glossary Off
Versions: 1 2 3 4 5 6 7 8 9 10 11 12 13 14 15 16 17 18 19 20 21

000
FTUS41 KRLX 272000 AAA
TAFHTS
TAF AMD
KHTS 272004Z 2720/2818 26006KT 6SM -SN BKN028 OVC040
      TEMPO 2721/2724 4SM -SHSN
     FM280600 29006KT P6SM SCT040
     FM281000 27004KT P6SM SCT200=

USA.gov is the U.S. government's official web portal to all federal, state and local government web resources and services.